sensor_id;sensor_type;location;lat;lon;timestamp;P1;durP1;ratioP1;P2;durP2;ratioP2
5710;SDS011;61291;52.524;13.422;2023-12-20T00:01:20;76.60;;;71.00;;
5710;SDS011;61291;52.524;13.422;2023-12-20T00:03:46;75.53;;;70.33;;
5710;SDS011;61291;52.524;13.422;2023-12-20T00:06:12;74.67;;;69.53;;
5710;SDS011;61291;52.524;13.422;2023-12-20T00:08:37;74.53;;;69.50;;
5710;SDS011;61291;52.524;13.422;2023-12-20T00:11:03;73.43;;;68.33;;
5710;SDS011;61291;52.524;13.422;2023-12-20T00:13:28;71.37;;;66.70;;
5710;SDS011;61291;52.524;13.422;2023-12-20T00:15:54;74.93;;;69.83;;
5710;SDS011;61291;52.524;13.422;2023-12-20T00:18:19;71.33;;;66.53;;
5710;SDS011;61291;52.524;13.422;2023-12-20T00:20:45;74.63;;;69.57;;
5710;SDS011;61291;52.524;13.422;2023-12-20T00:23:10;78.23;;;72.53;;
5710;SDS011;61291;52.524;13.422;2023-12-20T00:25:36;76.37;;;71.30;;
5710;SDS011;61291;52.524;13.422;2023-12-20T00:28:01;77.20;;;72.00;;
5710;SDS011;61291;52.524;13.422;2023-12-20T00:30:27;78.30;;;73.00;;
5710;SDS011;61291;52.524;13.422;2023-12-20T00:32:53;76.43;;;71.20;;
5710;SDS011;61291;52.524;13.422;2023-12-20T00:35:20;79.93;;;74.63;;
5710;SDS011;61291;52.524;13.422;2023-12-20T00:37:46;79.27;;;73.93;;
5710;SDS011;61291;52.524;13.422;2023-12-20T00:40:11;78.00;;;72.93;;
5710;SDS011;61291;52.524;13.422;2023-12-20T00:42:37;80.33;;;74.70;;
5710;SDS011;61291;52.524;13.422;2023-12-20T00:45:02;78.80;;;73.53;;
5710;SDS011;61291;52.524;13.422;2023-12-20T00:47:29;81.50;;;75.47;;
5710;SDS011;61291;52.524;13.422;2023-12-20T00:49:56;79.40;;;74.20;;
5710;SDS011;61291;52.524;13.422;2023-12-20T00:52:22;76.70;;;71.50;;
5710;SDS011;61291;52.524;13.422;2023-12-20T00:54:47;76.30;;;71.30;;
5710;SDS011;61291;52.524;13.422;2023-12-20T00:57:13;79.87;;;74.40;;
5710;SDS011;61291;52.524;13.422;2023-12-20T00:59:39;80.60;;;75.23;;
5710;SDS011;61291;52.524;13.422;2023-12-20T01:02:04;77.87;;;72.47;;
5710;SDS011;61291;52.524;13.422;2023-12-20T01:04:30;78.03;;;72.73;;
5710;SDS011;61291;52.524;13.422;2023-12-20T01:06:55;75.37;;;70.43;;
5710;SDS011;61291;52.524;13.422;2023-12-20T01:09:20;76.37;;;71.17;;
5710;SDS011;61291;52.524;13.422;2023-12-20T01:11:48;76.80;;;71.80;;
5710;SDS011;61291;52.524;13.422;2023-12-20T01:14:14;75.40;;;70.40;;
5710;SDS011;61291;52.524;13.422;2023-12-20T01:16:39;77.43;;;71.90;;
5710;SDS011;61291;52.524;13.422;2023-12-20T01:19:05;74.50;;;69.67;;
5710;SDS011;61291;52.524;13.422;2023-12-20T01:21:30;76.07;;;71.07;;
5710;SDS011;61291;52.524;13.422;2023-12-20T01:23:56;74.17;;;69.37;;
5710;SDS011;61291;52.524;13.422;2023-12-20T01:26:21;75.07;;;69.87;;
5710;SDS011;61291;52.524;13.422;2023-12-20T01:28:47;76.50;;;71.17;;
5710;SDS011;61291;52.524;13.422;2023-12-20T01:31:12;75.60;;;70.70;;
5710;SDS011;61291;52.524;13.422;2023-12-20T01:33:38;76.30;;;71.20;;
5710;SDS011;61291;52.524;13.422;2023-12-20T01:36:03;75.57;;;70.37;;
5710;SDS011;61291;52.524;13.422;2023-12-20T01:38:29;76.23;;;71.00;;
5710;SDS011;61291;52.524;13.422;2023-12-20T01:40:54;78.60;;;73.50;;
5710;SDS011;61291;52.524;13.422;2023-12-20T01:43:20;76.67;;;71.50;;
5710;SDS011;61291;52.524;13.422;2023-12-20T01:45:46;63.97;;;59.07;;
5710;SDS011;61291;52.524;13.422;2023-12-20T01:48:12;75.87;;;70.83;;
5710;SDS011;61291;52.524;13.422;2023-12-20T01:50:39;76.10;;;71.07;;
5710;SDS011;61291;52.524;13.422;2023-12-20T01:53:05;77.03;;;71.93;;
5710;SDS011;61291;52.524;13.422;2023-12-20T01:55:34;76.30;;;71.07;;
5710;SDS011;61291;52.524;13.422;2023-12-20T01:58:00;74.87;;;70.03;;
5710;SDS011;61291;52.524;13.422;2023-12-20T02:00:29;75.50;;;70.60;;
5710;SDS011;61291;52.524;13.422;2023-12-20T02:02:55;78.40;;;73.40;;
5710;SDS011;61291;52.524;13.422;2023-12-20T02:05:21;74.93;;;70.13;;
5710;SDS011;61291;52.524;13.422;2023-12-20T02:07:47;75.67;;;70.87;;
5710;SDS011;61291;52.524;13.422;2023-12-20T02:10:13;76.80;;;71.63;;
5710;SDS011;61291;52.524;13.422;2023-12-20T02:12:38;76.43;;;71.33;;
5710;SDS011;61291;52.524;13.422;2023-12-20T02:15:05;72.40;;;67.30;;
5710;SDS011;61291;52.524;13.422;2023-12-20T02:17:31;75.93;;;70.83;;
5710;SDS011;61291;52.524;13.422;2023-12-20T02:19:57;74.10;;;69.60;;
5710;SDS011;61291;52.524;13.422;2023-12-20T02:22:22;74.50;;;69.60;;
5710;SDS011;61291;52.524;13.422;2023-12-20T02:24:48;72.40;;;67.80;;
5710;SDS011;61291;52.524;13.422;2023-12-20T02:27:13;74.00;;;69.50;;
5710;SDS011;61291;52.524;13.422;2023-12-20T02:29:41;73.70;;;69.03;;
5710;SDS011;61291;52.524;13.422;2023-12-20T02:32:06;74.43;;;69.63;;
5710;SDS011;61291;52.524;13.422;2023-12-20T02:34:32;74.53;;;69.60;;
5710;SDS011;61291;52.524;13.422;2023-12-20T02:36:57;72.93;;;68.33;;
5710;SDS011;61291;52.524;13.422;2023-12-20T02:39:23;71.50;;;67.00;;
5710;SDS011;61291;52.524;13.422;2023-12-20T02:41:48;73.77;;;68.97;;
5710;SDS011;61291;52.524;13.422;2023-12-20T02:44:14;73.00;;;68.13;;
5710;SDS011;61291;52.524;13.422;2023-12-20T02:46:39;74.33;;;69.43;;
5710;SDS011;61291;52.524;13.422;2023-12-20T02:49:05;71.67;;;67.03;;
5710;SDS011;61291;52.524;13.422;2023-12-20T02:51:31;73.97;;;68.97;;
5710;SDS011;61291;52.524;13.422;2023-12-20T02:53:56;74.70;;;69.10;;
5710;SDS011;61291;52.524;13.422;2023-12-20T02:56:22;73.13;;;68.23;;
5710;SDS011;61291;52.524;13.422;2023-12-20T02:58:47;74.20;;;68.70;;
5710;SDS011;61291;52.524;13.422;2023-12-20T03:01:13;73.63;;;68.73;;
5710;SDS011;61291;52.524;13.422;2023-12-20T03:03:39;74.23;;;69.40;;
5710;SDS011;61291;52.524;13.422;2023-12-20T03:06:04;73.57;;;68.57;;
5710;SDS011;61291;52.524;13.422;2023-12-20T03:08:30;76.50;;;71.40;;
5710;SDS011;61291;52.524;13.422;2023-12-20T03:10:55;78.60;;;73.00;;
5710;SDS011;61291;52.524;13.422;2023-12-20T03:13:21;78.30;;;73.00;;
5710;SDS011;61291;52.524;13.422;2023-12-20T03:15:46;73.73;;;68.60;;
5710;SDS011;61291;52.524;13.422;2023-12-20T03:18:12;78.90;;;73.23;;
5710;SDS011;61291;52.524;13.422;2023-12-20T03:20:37;81.20;;;74.20;;
5710;SDS011;61291;52.524;13.422;2023-12-20T03:23:03;80.07;;;74.73;;
5710;SDS011;61291;52.524;13.422;2023-12-20T03:25:28;79.70;;;74.40;;
5710;SDS011;61291;52.524;13.422;2023-12-20T03:27:54;80.67;;;75.17;;
5710;SDS011;61291;52.524;13.422;2023-12-20T03:30:19;77.40;;;71.90;;
5710;SDS011;61291;52.524;13.422;2023-12-20T03:32:45;77.97;;;72.73;;
5710;SDS011;61291;52.524;13.422;2023-12-20T03:35:11;58.72;;;54.25;;
5710;SDS011;61291;52.524;13.422;2023-12-20T03:37:36;75.97;;;70.87;;
5710;SDS011;61291;52.524;13.422;2023-12-20T03:40:02;72.67;;;68.07;;
5710;SDS011;61291;52.524;13.422;2023-12-20T03:42:28;80.33;;;74.50;;
5710;SDS011;61291;52.524;13.422;2023-12-20T03:44:53;75.03;;;68.07;;
5710;SDS011;61291;52.524;13.422;2023-12-20T03:47:19;76.00;;;70.90;;
5710;SDS011;61291;52.524;13.422;2023-12-20T03:49:44;72.80;;;67.83;;
5710;SDS011;61291;52.524;13.422;2023-12-20T03:52:10;74.97;;;69.60;;
5710;SDS011;61291;52.524;13.422;2023-12-20T03:54:35;74.37;;;68.77;;
5710;SDS011;61291;52.524;13.422;2023-12-20T03:57:01;79.17;;;71.80;;
5710;SDS011;61291;52.524;13.422;2023-12-20T03:59:26;75.10;;;69.40;;
5710;SDS011;61291;52.524;13.422;2023-12-20T04:01:52;72.63;;;67.10;;
5710;SDS011;61291;52.524;13.422;2023-12-20T04:04:17;72.73;;;67.33;;
5710;SDS011;61291;52.524;13.422;2023-12-20T04:06:43;73.93;;;68.23;;
5710;SDS011;61291;52.524;13.422;2023-12-20T04:09:09;72.10;;;67.13;;
5710;SDS011;61291;52.524;13.422;2023-12-20T04:11:34;70.93;;;65.43;;
5710;SDS011;61291;52.524;13.422;2023-12-20T04:14:01;70.10;;;64.17;;
5710;SDS011;61291;52.524;13.422;2023-12-20T04:16:26;70.03;;;65.07;;
5710;SDS011;61291;52.524;13.422;2023-12-20T04:18:52;68.37;;;63.27;;
5710;SDS011;61291;52.524;13.422;2023-12-20T04:21:17;65.67;;;61.27;;
5710;SDS011;61291;52.524;13.422;2023-12-20T04:23:43;71.33;;;66.13;;
5710;SDS011;61291;52.524;13.422;2023-12-20T04:26:08;67.90;;;61.70;;
5710;SDS011;61291;52.524;13.422;2023-12-20T04:28:34;71.33;;;65.67;;
5710;SDS011;61291;52.524;13.422;2023-12-20T04:31:00;57.20;;;52.07;;
5710;SDS011;61291;52.524;13.422;2023-12-20T04:33:25;72.90;;;66.80;;
5710;SDS011;61291;52.524;13.422;2023-12-20T04:35:50;72.67;;;66.73;;
5710;SDS011;61291;52.524;13.422;2023-12-20T04:38:16;77.70;;;70.23;;
5710;SDS011;61291;52.524;13.422;2023-12-20T04:40:42;68.77;;;63.90;;
5710;SDS011;61291;52.524;13.422;2023-12-20T04:43:07;72.37;;;67.10;;
5710;SDS011;61291;52.524;13.422;2023-12-20T04:45:33;69.77;;;64.40;;
5710;SDS011;61291;52.524;13.422;2023-12-20T04:47:59;67.77;;;62.80;;
5710;SDS011;61291;52.524;13.422;2023-12-20T04:50:25;69.60;;;63.47;;
5710;SDS011;61291;52.524;13.422;2023-12-20T04:52:51;70.03;;;64.40;;
5710;SDS011;61291;52.524;13.422;2023-12-20T04:55:17;70.90;;;64.77;;
5710;SDS011;61291;52.524;13.422;2023-12-20T04:57:42;68.33;;;62.90;;
5710;SDS011;61291;52.524;13.422;2023-12-20T05:00:08;66.97;;;60.83;;
5710;SDS011;61291;52.524;13.422;2023-12-20T05:02:34;69.87;;;63.50;;
5710;SDS011;61291;52.524;13.422;2023-12-20T05:05:00;68.00;;;61.30;;
5710;SDS011;61291;52.524;13.422;2023-12-20T05:07:26;68.87;;;63.80;;
5710;SDS011;61291;52.524;13.422;2023-12-20T05:09:51;68.10;;;62.13;;
5710;SDS011;61291;52.524;13.422;2023-12-20T05:12:17;67.40;;;62.20;;
5710;SDS011;61291;52.524;13.422;2023-12-20T05:14:42;64.30;;;59.23;;
5710;SDS011;61291;52.524;13.422;2023-12-20T05:17:08;67.27;;;61.57;;
5710;SDS011;61291;52.524;13.422;2023-12-20T05:19:33;68.87;;;63.37;;
5710;SDS011;61291;52.524;13.422;2023-12-20T05:22:02;67.77;;;60.93;;
5710;SDS011;61291;52.524;13.422;2023-12-20T05:24:27;65.87;;;60.90;;
5710;SDS011;61291;52.524;13.422;2023-12-20T05:26:53;70.50;;;63.00;;
5710;SDS011;61291;52.524;13.422;2023-12-20T05:29:19;65.97;;;59.80;;
5710;SDS011;61291;52.524;13.422;2023-12-20T05:31:44;64.67;;;58.90;;
5710;SDS011;61291;52.524;13.422;2023-12-20T05:34:10;69.03;;;63.53;;
5710;SDS011;61291;52.524;13.422;2023-12-20T05:36:36;64.70;;;59.67;;
5710;SDS011;61291;52.524;13.422;2023-12-20T05:39:01;66.10;;;59.40;;
5710;SDS011;61291;52.524;13.422;2023-12-20T05:41:28;62.57;;;57.97;;
5710;SDS011;61291;52.524;13.422;2023-12-20T05:43:54;63.93;;;59.10;;
5710;SDS011;61291;52.524;13.422;2023-12-20T05:46:20;63.50;;;57.40;;
5710;SDS011;61291;52.524;13.422;2023-12-20T05:48:46;66.23;;;60.70;;
5710;SDS011;61291;52.524;13.422;2023-12-20T05:51:12;62.63;;;56.30;;
5710;SDS011;61291;52.524;13.422;2023-12-20T05:53:38;65.87;;;60.07;;
5710;SDS011;61291;52.524;13.422;2023-12-20T05:56:03;72.20;;;66.60;;
5710;SDS011;61291;52.524;13.422;2023-12-20T05:58:29;67.10;;;61.97;;
5710;SDS011;61291;52.524;13.422;2023-12-20T06:00:54;65.40;;;60.10;;
5710;SDS011;61291;52.524;13.422;2023-12-20T06:03:20;66.30;;;61.33;;
5710;SDS011;61291;52.524;13.422;2023-12-20T06:05:45;62.90;;;57.67;;
5710;SDS011;61291;52.524;13.422;2023-12-20T06:08:11;67.47;;;62.10;;
5710;SDS011;61291;52.524;13.422;2023-12-20T06:10:36;69.47;;;63.10;;
5710;SDS011;61291;52.524;13.422;2023-12-20T06:13:02;60.73;;;55.27;;
5710;SDS011;61291;52.524;13.422;2023-12-20T06:15:29;66.83;;;61.20;;
5710;SDS011;61291;52.524;13.422;2023-12-20T06:17:54;65.47;;;59.63;;
5710;SDS011;61291;52.524;13.422;2023-12-20T06:20:20;54.55;;;50.05;;
5710;SDS011;61291;52.524;13.422;2023-12-20T06:22:46;70.40;;;64.47;;
5710;SDS011;61291;52.524;13.422;2023-12-20T06:25:11;62.83;;;57.63;;
5710;SDS011;61291;52.524;13.422;2023-12-20T06:27:37;64.87;;;58.50;;
5710;SDS011;61291;52.524;13.422;2023-12-20T06:30:02;72.87;;;66.67;;
5710;SDS011;61291;52.524;13.422;2023-12-20T06:32:28;67.18;;;60.90;;
5710;SDS011;61291;52.524;13.422;2023-12-20T06:34:54;64.40;;;59.10;;
5710;SDS011;61291;52.524;13.422;2023-12-20T06:37:19;73.63;;;67.63;;
5710;SDS011;61291;52.524;13.422;2023-12-20T06:39:45;66.90;;;61.20;;
5710;SDS011;61291;52.524;13.422;2023-12-20T06:42:11;73.63;;;67.40;;
5710;SDS011;61291;52.524;13.422;2023-12-20T06:44:37;62.10;;;57.00;;
5710;SDS011;61291;52.524;13.422;2023-12-20T06:47:03;66.60;;;61.57;;
5710;SDS011;61291;52.524;13.422;2023-12-20T06:49:29;61.50;;;56.23;;
5710;SDS011;61291;52.524;13.422;2023-12-20T06:51:54;66.20;;;60.50;;
5710;SDS011;61291;52.524;13.422;2023-12-20T06:54:20;61.00;;;54.93;;
5710;SDS011;61291;52.524;13.422;2023-12-20T06:56:45;63.17;;;57.37;;
5710;SDS011;61291;52.524;13.422;2023-12-20T06:59:11;61.70;;;56.90;;
5710;SDS011;61291;52.524;13.422;2023-12-20T07:01:37;66.27;;;60.43;;
5710;SDS011;61291;52.524;13.422;2023-12-20T07:04:02;65.00;;;60.03;;
5710;SDS011;61291;52.524;13.422;2023-12-20T07:06:28;65.57;;;60.50;;
5710;SDS011;61291;52.524;13.422;2023-12-20T07:08:53;66.47;;;60.40;;
5710;SDS011;61291;52.524;13.422;2023-12-20T07:11:19;57.97;;;52.70;;
5710;SDS011;61291;52.524;13.422;2023-12-20T07:13:44;67.50;;;61.30;;
5710;SDS011;61291;52.524;13.422;2023-12-20T07:16:10;65.53;;;59.47;;
5710;SDS011;61291;52.524;13.422;2023-12-20T07:18:35;64.57;;;58.17;;
5710;SDS011;61291;52.524;13.422;2023-12-20T07:21:01;64.90;;;59.50;;
5710;SDS011;61291;52.524;13.422;2023-12-20T07:23:27;73.73;;;68.53;;
5710;SDS011;61291;52.524;13.422;2023-12-20T07:25:52;78.10;;;72.70;;
5710;SDS011;61291;52.524;13.422;2023-12-20T07:28:17;66.47;;;60.63;;
5710;SDS011;61291;52.524;13.422;2023-12-20T07:30:43;72.57;;;66.57;;
5710;SDS011;61291;52.524;13.422;2023-12-20T07:33:08;75.13;;;69.30;;
5710;SDS011;61291;52.524;13.422;2023-12-20T07:35:34;70.60;;;64.60;;
5710;SDS011;61291;52.524;13.422;2023-12-20T07:38:00;83.13;;;77.03;;
5710;SDS011;61291;52.524;13.422;2023-12-20T07:40:25;74.37;;;68.13;;
5710;SDS011;61291;52.524;13.422;2023-12-20T07:42:51;74.73;;;67.87;;
5710;SDS011;61291;52.524;13.422;2023-12-20T07:45:16;74.57;;;68.67;;
5710;SDS011;61291;52.524;13.422;2023-12-20T07:47:42;75.07;;;69.27;;
5710;SDS011;61291;52.524;13.422;2023-12-20T07:50:07;78.50;;;72.30;;
5710;SDS011;61291;52.524;13.422;2023-12-20T07:52:33;72.37;;;65.67;;
5710;SDS011;61291;52.524;13.422;2023-12-20T07:54:58;69.43;;;63.77;;
5710;SDS011;61291;52.524;13.422;2023-12-20T07:57:24;69.03;;;63.50;;
5710;SDS011;61291;52.524;13.422;2023-12-20T07:59:49;74.00;;;67.77;;
5710;SDS011;61291;52.524;13.422;2023-12-20T08:02:15;71.10;;;66.10;;
5710;SDS011;61291;52.524;13.422;2023-12-20T08:04:41;60.60;;;54.70;;
5710;SDS011;61291;52.524;13.422;2023-12-20T08:07:07;75.07;;;69.20;;
5710;SDS011;61291;52.524;13.422;2023-12-20T08:09:32;75.33;;;69.80;;
5710;SDS011;61291;52.524;13.422;2023-12-20T08:11:59;79.27;;;71.93;;
5710;SDS011;61291;52.524;13.422;2023-12-20T08:14:24;71.53;;;66.73;;
5710;SDS011;61291;52.524;13.422;2023-12-20T08:16:50;76.07;;;69.67;;
5710;SDS011;61291;52.524;13.422;2023-12-20T08:19:16;75.17;;;69.43;;
5710;SDS011;61291;52.524;13.422;2023-12-20T08:21:41;80.67;;;73.57;;
5710;SDS011;61291;52.524;13.422;2023-12-20T08:24:07;79.87;;;74.50;;
5710;SDS011;61291;52.524;13.422;2023-12-20T08:26:33;73.63;;;67.63;;
5710;SDS011;61291;52.524;13.422;2023-12-20T08:28:59;81.00;;;75.63;;
5710;SDS011;61291;52.524;13.422;2023-12-20T08:31:24;76.27;;;70.37;;
5710;SDS011;61291;52.524;13.422;2023-12-20T08:33:51;77.93;;;71.90;;
5710;SDS011;61291;52.524;13.422;2023-12-20T08:36:18;82.53;;;76.53;;
5710;SDS011;61291;52.524;13.422;2023-12-20T08:38:46;79.30;;;73.50;;
5710;SDS011;61291;52.524;13.422;2023-12-20T08:41:12;76.93;;;70.63;;
5710;SDS011;61291;52.524;13.422;2023-12-20T08:43:37;88.03;;;82.00;;
5710;SDS011;61291;52.524;13.422;2023-12-20T08:46:05;79.97;;;74.03;;
5710;SDS011;61291;52.524;13.422;2023-12-20T08:48:31;72.60;;;67.40;;
5710;SDS011;61291;52.524;13.422;2023-12-20T08:50:56;76.07;;;70.40;;
5710;SDS011;61291;52.524;13.422;2023-12-20T08:53:22;78.27;;;72.70;;
5710;SDS011;61291;52.524;13.422;2023-12-20T08:55:47;86.70;;;78.80;;
5710;SDS011;61291;52.524;13.422;2023-12-20T08:58:13;77.87;;;71.77;;
5710;SDS011;61291;52.524;13.422;2023-12-20T09:00:39;74.43;;;68.30;;
5710;SDS011;61291;52.524;13.422;2023-12-20T09:03:04;74.50;;;68.50;;
5710;SDS011;61291;52.524;13.422;2023-12-20T09:05:30;70.70;;;65.40;;
5710;SDS011;61291;52.524;13.422;2023-12-20T09:07:55;68.97;;;62.90;;
5710;SDS011;61291;52.524;13.422;2023-12-20T09:10:21;75.93;;;70.23;;
5710;SDS011;61291;52.524;13.422;2023-12-20T09:12:50;78.13;;;72.70;;
5710;SDS011;61291;52.524;13.422;2023-12-20T09:15:16;77.30;;;71.90;;
5710;SDS011;61291;52.524;13.422;2023-12-20T09:17:41;73.87;;;67.10;;
5710;SDS011;61291;52.524;13.422;2023-12-20T09:20:08;77.87;;;71.20;;
5710;SDS011;61291;52.524;13.422;2023-12-20T09:22:34;78.50;;;71.17;;
5710;SDS011;61291;52.524;13.422;2023-12-20T09:25:00;81.10;;;73.43;;
5710;SDS011;61291;52.524;13.422;2023-12-20T09:27:26;77.00;;;71.30;;
5710;SDS011;61291;52.524;13.422;2023-12-20T09:29:52;74.10;;;68.90;;
5710;SDS011;61291;52.524;13.422;2023-12-20T09:32:18;77.67;;;71.63;;
5710;SDS011;61291;52.524;13.422;2023-12-20T09:34:45;73.37;;;67.93;;
5710;SDS011;61291;52.524;13.422;2023-12-20T09:37:10;78.63;;;72.33;;
5710;SDS011;61291;52.524;13.422;2023-12-20T09:39:36;73.33;;;67.87;;
5710;SDS011;61291;52.524;13.422;2023-12-20T09:42:03;78.47;;;71.97;;
5710;SDS011;61291;52.524;13.422;2023-12-20T09:44:29;67.57;;;62.17;;
5710;SDS011;61291;52.524;13.422;2023-12-20T09:46:56;76.20;;;70.73;;
5710;SDS011;61291;52.524;13.422;2023-12-20T09:49:22;77.67;;;71.37;;
5710;SDS011;61291;52.524;13.422;2023-12-20T09:51:48;71.43;;;65.30;;
5710;SDS011;61291;52.524;13.422;2023-12-20T09:54:17;74.43;;;68.83;;
5710;SDS011;61291;52.524;13.422;2023-12-20T09:56:43;82.43;;;75.33;;
5710;SDS011;61291;52.524;13.422;2023-12-20T09:59:09;75.50;;;69.77;;
5710;SDS011;61291;52.524;13.422;2023-12-20T10:01:35;74.90;;;68.73;;
5710;SDS011;61291;52.524;13.422;2023-12-20T10:04:01;74.77;;;68.93;;
5710;SDS011;61291;52.524;13.422;2023-12-20T10:06:33;74.53;;;68.57;;
5710;SDS011;61291;52.524;13.422;2023-12-20T10:09:05;75.47;;;69.60;;
5710;SDS011;61291;52.524;13.422;2023-12-20T10:11:31;72.93;;;67.60;;
5710;SDS011;61291;52.524;13.422;2023-12-20T10:13:59;74.80;;;68.80;;
5710;SDS011;61291;52.524;13.422;2023-12-20T10:16:28;72.30;;;66.80;;
5710;SDS011;61291;52.524;13.422;2023-12-20T10:18:55;74.57;;;67.90;;
5710;SDS011;61291;52.524;13.422;2023-12-20T10:21:21;68.87;;;63.43;;
5710;SDS011;61291;52.524;13.422;2023-12-20T10:23:48;72.13;;;66.33;;
5710;SDS011;61291;52.524;13.422;2023-12-20T10:26:18;77.70;;;71.37;;
5710;SDS011;61291;52.524;13.422;2023-12-20T10:28:46;76.73;;;69.97;;
5710;SDS011;61291;52.524;13.422;2023-12-20T10:31:36;76.50;;;70.20;;
5710;SDS011;61291;52.524;13.422;2023-12-20T10:34:01;69.70;;;63.53;;
5710;SDS011;61291;52.524;13.422;2023-12-20T10:36:28;73.30;;;67.73;;
5710;SDS011;61291;52.524;13.422;2023-12-20T10:38:56;70.93;;;65.37;;
5710;SDS011;61291;52.524;13.422;2023-12-20T10:41:26;78.63;;;71.67;;
5710;SDS011;61291;52.524;13.422;2023-12-20T10:44:02;59.45;;;53.75;;
5710;SDS011;61291;52.524;13.422;2023-12-20T10:46:30;83.10;;;75.90;;
5710;SDS011;61291;52.524;13.422;2023-12-20T10:48:57;71.33;;;65.37;;
5710;SDS011;61291;52.524;13.422;2023-12-20T10:51:23;81.03;;;74.53;;
5710;SDS011;61291;52.524;13.422;2023-12-20T10:53:52;78.00;;;72.17;;
5710;SDS011;61291;52.524;13.422;2023-12-20T10:56:18;72.47;;;67.00;;
5710;SDS011;61291;52.524;13.422;2023-12-20T10:58:46;72.03;;;66.33;;
5710;SDS011;61291;52.524;13.422;2023-12-20T11:01:13;76.30;;;69.63;;
5710;SDS011;61291;52.524;13.422;2023-12-20T11:03:41;73.80;;;68.80;;
5710;SDS011;61291;52.524;13.422;2023-12-20T11:08:52;69.70;;;64.67;;
5710;SDS011;61291;52.524;13.422;2023-12-20T11:11:55;69.90;;;64.10;;
5710;SDS011;61291;52.524;13.422;2023-12-20T11:14:50;69.67;;;64.13;;
5710;SDS011;61291;52.524;13.422;2023-12-20T11:17:17;71.20;;;65.30;;
5710;SDS011;61291;52.524;13.422;2023-12-20T11:20:03;71.13;;;65.70;;
5710;SDS011;61291;52.524;13.422;2023-12-20T11:22:32;70.20;;;65.10;;
5710;SDS011;61291;52.524;13.422;2023-12-20T11:25:00;69.73;;;64.50;;
5710;SDS011;61291;52.524;13.422;2023-12-20T11:27:35;72.30;;;67.30;;
5710;SDS011;61291;52.524;13.422;2023-12-20T11:30:02;71.93;;;66.00;;
5710;SDS011;61291;52.524;13.422;2023-12-20T11:32:34;54.03;;;49.35;;
5710;SDS011;61291;52.524;13.422;2023-12-20T11:35:00;70.17;;;64.30;;
5710;SDS011;61291;52.524;13.422;2023-12-20T11:37:41;66.10;;;60.87;;
5710;SDS011;61291;52.524;13.422;2023-12-20T11:40:08;73.53;;;67.47;;
5710;SDS011;61291;52.524;13.422;2023-12-20T11:42:39;63.70;;;58.77;;
5710;SDS011;61291;52.524;13.422;2023-12-20T11:45:24;66.20;;;60.43;;
5710;SDS011;61291;52.524;13.422;2023-12-20T11:47:51;63.63;;;58.10;;
5710;SDS011;61291;52.524;13.422;2023-12-20T11:50:18;64.07;;;58.87;;
5710;SDS011;61291;52.524;13.422;2023-12-20T11:52:44;66.07;;;60.30;;
5710;SDS011;61291;52.524;13.422;2023-12-20T11:55:10;67.53;;;62.60;;
5710;SDS011;61291;52.524;13.422;2023-12-20T11:57:36;65.47;;;60.33;;
5710;SDS011;61291;52.524;13.422;2023-12-20T12:00:02;68.30;;;63.10;;
5710;SDS011;61291;52.524;13.422;2023-12-20T12:02:28;69.97;;;64.73;;
5710;SDS011;61291;52.524;13.422;2023-12-20T12:04:54;67.47;;;62.87;;
5710;SDS011;61291;52.524;13.422;2023-12-20T12:07:21;70.97;;;65.13;;
5710;SDS011;61291;52.524;13.422;2023-12-20T12:09:46;74.50;;;68.70;;
5710;SDS011;61291;52.524;13.422;2023-12-20T12:12:12;69.43;;;63.87;;
5710;SDS011;61291;52.524;13.422;2023-12-20T12:14:38;70.40;;;64.70;;
5710;SDS011;61291;52.524;13.422;2023-12-20T12:17:09;71.60;;;66.10;;
5710;SDS011;61291;52.524;13.422;2023-12-20T12:19:38;71.07;;;65.30;;
5710;SDS011;61291;52.524;13.422;2023-12-20T12:22:08;72.87;;;67.20;;
5710;SDS011;61291;52.524;13.422;2023-12-20T12:24:42;53.40;;;48.80;;
5710;SDS011;61291;52.524;13.422;2023-12-20T12:27:08;65.83;;;61.00;;
5710;SDS011;61291;52.524;13.422;2023-12-20T12:29:35;65.77;;;60.63;;
5710;SDS011;61291;52.524;13.422;2023-12-20T12:32:02;67.13;;;61.77;;
5710;SDS011;61291;52.524;13.422;2023-12-20T12:34:31;62.60;;;57.60;;
5710;SDS011;61291;52.524;13.422;2023-12-20T12:36:57;62.72;;;57.63;;
5710;SDS011;61291;52.524;13.422;2023-12-20T12:39:23;64.20;;;58.80;;
5710;SDS011;61291;52.524;13.422;2023-12-20T12:41:52;65.07;;;59.60;;
5710;SDS011;61291;52.524;13.422;2023-12-20T12:44:18;63.93;;;59.20;;
5710;SDS011;61291;52.524;13.422;2023-12-20T12:46:47;67.40;;;62.33;;
5710;SDS011;61291;52.524;13.422;2023-12-20T12:49:15;67.00;;;62.00;;
5710;SDS011;61291;52.524;13.422;2023-12-20T12:51:41;64.83;;;59.83;;
5710;SDS011;61291;52.524;13.422;2023-12-20T12:54:08;67.57;;;62.13;;
5710;SDS011;61291;52.524;13.422;2023-12-20T12:56:34;67.37;;;61.60;;
5710;SDS011;61291;52.524;13.422;2023-12-20T12:59:00;65.70;;;60.57;;
5710;SDS011;61291;52.524;13.422;2023-12-20T13:01:26;63.73;;;59.23;;
5710;SDS011;61291;52.524;13.422;2023-12-20T13:03:51;66.83;;;62.13;;
5710;SDS011;61291;52.524;13.422;2023-12-20T13:06:17;65.10;;;60.03;;
5710;SDS011;61291;52.524;13.422;2023-12-20T13:08:42;55.27;;;50.47;;
5710;SDS011;61291;52.524;13.422;2023-12-20T13:11:09;58.20;;;53.60;;
5710;SDS011;61291;52.524;13.422;2023-12-20T13:13:34;57.33;;;52.90;;
5710;SDS011;61291;52.524;13.422;2023-12-20T13:16:00;69.47;;;57.03;;
5710;SDS011;61291;52.524;13.422;2023-12-20T13:18:25;58.07;;;53.23;;
5710;SDS011;61291;52.524;13.422;2023-12-20T13:20:51;60.30;;;54.10;;
5710;SDS011;61291;52.524;13.422;2023-12-20T13:23:16;59.87;;;55.70;;
5710;SDS011;61291;52.524;13.422;2023-12-20T13:25:43;63.13;;;58.53;;
5710;SDS011;61291;52.524;13.422;2023-12-20T13:28:12;63.23;;;59.13;;
5710;SDS011;61291;52.524;13.422;2023-12-20T13:30:38;61.23;;;57.17;;
5710;SDS011;61291;52.524;13.422;2023-12-20T13:33:04;57.77;;;53.57;;
5710;SDS011;61291;52.524;13.422;2023-12-20T13:35:31;59.27;;;55.20;;
5710;SDS011;61291;52.524;13.422;2023-12-20T13:37:57;58.90;;;54.70;;
5710;SDS011;61291;52.524;13.422;2023-12-20T13:40:23;59.20;;;55.27;;
5710;SDS011;61291;52.524;13.422;2023-12-20T13:42:49;66.53;;;61.33;;
5710;SDS011;61291;52.524;13.422;2023-12-20T13:45:14;61.93;;;57.80;;
5710;SDS011;61291;52.524;13.422;2023-12-20T13:47:40;58.77;;;54.80;;
5710;SDS011;61291;52.524;13.422;2023-12-20T13:50:05;60.67;;;56.43;;
5710;SDS011;61291;52.524;13.422;2023-12-20T13:52:31;57.80;;;53.93;;
5710;SDS011;61291;52.524;13.422;2023-12-20T13:54:56;61.20;;;57.20;;
5710;SDS011;61291;52.524;13.422;2023-12-20T13:57:22;73.27;;;68.73;;
5710;SDS011;61291;52.524;13.422;2023-12-20T13:59:47;71.77;;;66.70;;
5710;SDS011;61291;52.524;13.422;2023-12-20T14:02:13;66.40;;;61.93;;
5710;SDS011;61291;52.524;13.422;2023-12-20T14:04:38;66.77;;;62.50;;
5710;SDS011;61291;52.524;13.422;2023-12-20T14:07:04;67.77;;;63.30;;
5710;SDS011;61291;52.524;13.422;2023-12-20T14:09:30;63.77;;;59.70;;
5710;SDS011;61291;52.524;13.422;2023-12-20T14:11:55;64.07;;;59.50;;
5710;SDS011;61291;52.524;13.422;2023-12-20T14:14:21;69.97;;;65.10;;
5710;SDS011;61291;52.524;13.422;2023-12-20T14:16:46;70.90;;;66.20;;
5710;SDS011;61291;52.524;13.422;2023-12-20T14:19:12;63.90;;;59.50;;